Time;durP1;ratioP1;P1;durP2;ratioP2;P2;SDS_P1;SDS_P2;PMS_P1;PMS_P2;Temp;Humidity;BMP_temperature;BMP_pressure;BME280_temperature;BME280_humidity;BME280_pressure;Samples;Min_cycle;Max_cycle;Signal;HPM_P1;HPM_P2
2022/12/30 00:02:31;;;;;;;2.13;2.03;;;6.90;99.90;;;7.70;100.00;97827.38;5195991;28;20217;-61
2022/12/30 00:05:06;;;;;;;2.40;2.05;;;6.90;99.90;;;7.61;100.00;97826.00;5199268;28;20236;-62
2022/12/30 00:07:39;;;;;;;2.03;1.92;;;7.00;99.90;;;7.67;100.00;97826.41;5197931;28;20324;-63
2022/12/30 00:10:12;;;;;;;2.10;2.00;;;6.90;99.90;;;7.64;100.00;97830.38;5199826;28;20662;-62
2022/12/30 00:35:34;;;;;;;2.38;2.20;;;6.80;99.90;;;7.48;100.00;97813.22;5200003;28;20186;-60
2022/12/30 00:38:07;;;;;;;2.00;1.90;;;6.80;99.90;;;7.60;100.00;97814.03;5195303;28;20700;-62
2022/12/30 00:43:07;;;;;;;1.85;1.75;;;6.80;99.90;;;7.60;100.00;97816.59;5195713;28;20647;-62
2022/12/30 00:43:32;;;;;;;1.65;1.55;;;6.80;99.90;;;7.46;100.00;97819.84;5196408;28;20209;-62
2022/12/30 00:46:05;;;;;;;2.33;2.17;;;6.80;99.90;;;7.41;100.00;97838.97;5193088;28;20287;-62
2022/12/30 00:57:13;;;;;;;2.22;2.13;;;6.70;99.90;;;7.27;100.00;97852.41;5196153;28;20288;-62
2022/12/30 00:59:46;;;;;;;2.20;2.10;;;6.60;99.90;;;7.28;100.00;97846.56;5187810;28;20744;-62
2022/12/30 01:02:19;;;;;;;2.55;2.35;;;6.60;99.90;;;7.27;100.00;97852.41;5194951;28;20241;-63
2022/12/30 01:04:54;;;;;;;2.45;2.30;;;6.60;99.90;;;7.23;100.00;97844.56;5201683;28;20280;-62
2022/12/30 01:07:28;;;;;;;1.95;1.85;;;6.60;99.90;;;7.29;100.00;97858.47;5196928;28;20280;-63
2022/12/30 01:10:01;;;;;;;2.17;2.08;;;6.60;99.90;;;7.34;100.00;97847.84;5203544;28;20611;-64
2022/12/30 01:12:35;;;;;;;2.33;2.20;;;6.60;99.90;;;7.36;100.00;97863.22;5199105;28;20230;-64
2022/12/30 01:15:09;;;;;;;2.20;2.10;;;6.70;99.90;;;7.31;100.00;97857.81;5201622;28;20646;-64
2022/12/30 01:17:42;;;;;;;2.35;2.25;;;6.60;99.90;;;7.29;100.00;97871.19;5199807;28;20820;-64
2022/12/30 01:20:17;;;;;;;2.35;2.25;;;6.60;99.90;;;7.36;100.00;97863.22;5199668;28;20663;-64
2022/12/30 01:22:50;;;;;;;2.40;2.15;;;6.70;99.90;;;7.32;100.00;97871.41;5196419;28;20211;-64
2022/12/30 01:25:23;;;;;;;2.65;2.40;;;6.60;99.90;;;7.29;100.00;97871.19;5202574;28;20312;-64
2022/12/30 01:27:56;;;;;;;2.15;2.05;;;6.60;99.90;;;7.28;100.00;97882.16;5199758;28;20678;-63
2022/12/30 01:30:29;;;;;;;1.85;1.75;;;6.60;99.90;;;7.26;100.00;97881.16;5198328;28;20644;-64
2022/12/30 01:33:02;;;;;;;1.90;1.80;;;6.50;99.90;;;7.25;100.00;97887.03;5202607;28;20300;-63
2022/12/30 01:35:37;;;;;;;2.03;1.95;;;6.50;99.90;;;7.16;100.00;97885.59;5197764;28;20218;-64
2022/12/30 01:38:10;;;;;;;2.55;2.35;;;6.50;99.90;;;7.13;100.00;97885.38;5201078;28;20317;-64
2022/12/30 01:40:44;;;;;;;2.42;2.33;;;6.50;99.90;;;7.11;100.00;97876.75;5199516;28;20272;-64
2022/12/30 01:43:18;;;;;;;2.20;2.10;;;6.40;99.90;;;7.12;100.00;97875.09;5202977;28;20205;-63
2022/12/30 01:45:54;;;;;;;2.35;2.15;;;6.50;99.90;;;7.16;100.00;97883.06;5189058;28;20309;-64
2022/12/30 01:48:31;;;;;;;2.35;2.10;;;6.50;99.90;;;7.11;100.00;97886.94;5200349;28;20295;-61
2022/12/30 01:51:10;;;;;;;2.60;2.42;;;6.40;99.90;;;7.06;100.00;97888.25;5201894;28;20735;-61
2022/12/30 01:53:47;;;;;;;3.22;2.40;;;6.40;99.90;;;7.05;100.00;97886.50;5198819;28;20217;-62
2022/12/30 01:56:27;;;;;;;2.50;2.40;;;6.40;99.90;;;7.06;100.00;97883.16;5201318;28;20280;-61
2022/12/30 01:59:05;;;;;;;2.65;2.50;;;6.40;99.90;;;7.13;100.00;97884.50;5201860;28;20631;-62
2022/12/30 02:01:40;;;;;;;2.55;2.35;;;6.40;99.90;;;7.04;100.00;97886.38;5193394;28;20251;-61
2022/12/30 02:04:17;;;;;;;2.60;2.40;;;6.30;99.90;;;7.04;100.00;97894.91;5196696;28;20204;-61
2022/12/30 02:07:01;;;;;;;3.00;2.70;;;6.30;99.90;;;7.04;100.00;97887.28;5197380;28;20312;-62
2022/12/30 02:09:36;;;;;;;2.50;2.40;;;6.30;99.90;;;7.05;100.00;97896.66;5197443;28;20678;-62
2022/12/30 02:12:10;;;;;;;2.60;2.50;;;6.30;99.90;;;6.93;100.00;97906.84;5199549;28;20210;-61
2022/12/30 02:14:45;;;;;;;2.40;2.20;;;6.30;99.90;;;6.97;100.00;97907.94;5200872;28;20688;-61
2022/12/30 02:17:32;;;;;;;2.03;1.93;;;6.30;99.90;;;6.99;100.00;97919.09;5197338;28;20304;-61
2022/12/30 02:20:51;;;;;;;1.90;1.80;;;6.30;99.90;;;6.96;100.00;97907.06;5197778;28;20712;-61
2022/12/30 02:24:13;;;;;;;1.73;1.63;;;6.30;99.90;;;7.02;100.00;97901.53;5194894;28;20221;-61
2022/12/30 02:27:14;;;;;;;2.10;2.00;;;6.30;99.90;;;7.04;100.00;97922.84;5195334;28;20233;-61
2022/12/30 02:30:19;;;;;;;1.93;1.77;;;6.40;99.90;;;7.06;100.00;97921.28;5193981;28;20300;-61
2022/12/30 02:33:19;;;;;;;2.03;1.92;;;6.40;99.90;;;7.11;100.00;97917.41;5166947;28;20767;-61
2022/12/30 02:36:04;;;;;;;2.05;1.90;;;6.40;99.90;;;7.15;100.00;97905.81;5195778;28;20252;-61
2022/12/30 02:38:44;;;;;;;2.10;1.70;;;6.40;99.90;;;7.16;100.00;97908.47;5201291;28;20275;-61
2022/12/30 02:44:37;;;;;;;2.05;1.95;;;6.50;99.90;;;7.22;100.00;97911.44;5198385;28;20280;-61
2022/12/30 02:47:20;;;;;;;2.13;1.85;;;6.50;99.90;;;7.09;100.00;97907.91;5190516;28;20327;-61
2022/12/30 02:52:52;;;;;;;2.13;2.00;;;6.40;99.90;;;7.11;100.00;97912.34;5198014;28;20194;-61
2022/12/30 02:55:25;;;;;;;2.60;2.40;;;6.40;99.90;;;7.01;100.00;97917.56;5201251;28;20288;-61
2022/12/30 02:57:58;;;;;;;1.80;1.70;;;6.30;99.90;;;7.02;100.00;97926.94;5201919;28;20312;-61
2022/12/30 03:04:01;;;;;;;1.67;1.52;;;6.30;99.90;;;6.92;100.00;97942.28;5194389;28;20228;-61
2022/12/30 03:07:14;;;;;;;2.00;1.80;;;6.20;99.90;;;6.87;100.00;97947.06;5198322;28;20628;-64
2022/12/30 03:13:03;;;;;;;1.92;1.83;;;6.20;99.90;;;6.90;100.00;97942.19;5199150;28;20244;-63
2022/12/30 03:15:42;;;;;;;1.90;1.80;;;6.20;99.90;;;6.92;100.00;97943.16;5193882;28;20692;-63
2022/12/30 03:18:17;;;;;;;1.83;1.73;;;6.20;99.90;;;6.82;100.00;97948.38;5198004;28;20244;-63
2022/12/30 03:20:52;;;;;;;2.10;2.00;;;6.20;99.90;;;6.82;100.00;97950.03;5198375;28;20627;-63
2022/12/30 03:29:17;;;;;;;1.85;1.75;;;6.20;99.90;;;6.87;100.00;97944.50;5201051;28;20204;-63
2022/12/30 03:31:50;;;;;;;1.83;1.83;;;6.20;99.90;;;6.90;100.00;97938.78;5195642;28;20626;-63
2022/12/30 03:34:25;;;;;;;1.70;1.60;;;6.10;99.90;;;6.86;100.00;97939.31;5198477;28;20564;-63
2022/12/30 03:37:04;;;;;;;3.22;3.10;;;6.10;99.90;;;6.83;100.00;97939.09;5195571;28;20307;-63
2022/12/30 03:39:42;;;;;;;2.83;2.72;;;6.00;99.90;;;6.73;100.00;97948.56;5196460;28;20296;-63
2022/12/30 03:42:17;;;;;;;2.83;2.63;;;6.00;99.90;;;6.66;100.00;97946.34;5188222;28;20426;-64
2022/12/30 03:44:51;;;;;;;2.40;2.30;;;5.90;99.90;;;6.64;100.00;97945.38;5199529;28;20279;-63
2022/12/30 03:47:25;;;;;;;1.90;1.80;;;5.90;99.90;;;6.51;100.00;97942.69;5198825;28;20244;-63
2022/12/30 03:49:58;;;;;;;2.13;1.97;;;5.80;99.90;;;6.44;100.00;97938.81;5196160;28;20198;-63
2022/12/30 03:52:32;;;;;;;1.70;1.70;;;5.70;99.90;;;6.39;100.00;97945.22;5194522;28;20430;-62
2022/12/30 03:55:08;;;;;;;1.90;1.80;;;5.70;99.90;;;6.29;100.00;97948.69;5189803;28;20618;-62
2022/12/30 03:57:41;;;;;;;1.90;1.80;;;5.60;99.90;;;6.21;100.00;97944.72;5199234;28;20818;-63
2022/12/30 04:00:15;;;;;;;2.10;2.00;;;5.50;99.90;;;6.15;100.00;97944.25;5197579;28;20202;-63
2022/12/30 04:02:48;;;;;;;1.97;1.87;;;5.50;99.90;;;6.04;100.00;97950.19;5193093;28;20288;-63
2022/12/30 04:05:22;;;;;;;2.27;2.13;;;5.30;99.90;;;5.96;100.00;97941.09;5197352;28;20205;-63
2022/12/30 04:07:55;;;;;;;2.17;1.80;;;5.20;99.90;;;5.93;100.00;97945.91;5197655;28;20657;-62
2022/12/30 04:10:29;;;;;;;2.00;1.90;;;5.20;99.90;;;5.85;100.00;97953.81;5192670;28;20629;-63
2022/12/30 04:13:02;;;;;;;1.90;1.80;;;5.10;99.90;;;5.73;100.00;97952.88;5199470;28;20684;-63
2022/12/30 04:15:35;;;;;;;2.00;1.90;;;4.90;99.90;;;5.51;100.00;97944.38;5196873;28;20620;-63
2022/12/30 04:18:08;;;;;;;2.40;2.30;;;4.80;99.90;;;5.48;100.00;97944.13;5198434;28;20301;-63
2022/12/30 04:20:42;;;;;;;2.77;2.57;;;4.80;99.90;;;5.31;100.00;97938.63;5197398;28;20311;-63
2022/12/30 04:23:15;;;;;;;2.60;2.40;;;4.70;99.90;;;5.16;100.00;97943.38;5196404;28;20198;-63
2022/12/30 04:25:50;;;;;;;2.37;2.23;;;4.70;99.90;;;5.33;100.00;97949.78;5199892;28;20288;-63
2022/12/30 04:28:23;;;;;;;2.57;2.47;;;4.70;99.90;;;5.33;100.00;97946.38;5200189;28;20272;-63
2022/12/30 04:30:56;;;;;;;3.20;2.50;;;4.70;99.90;;;5.22;100.00;97947.16;5198781;28;20282;-63
2022/12/30 04:33:29;;;;;;;4.30;3.90;;;4.60;99.90;;;5.23;100.00;97943.88;5196626;28;20285;-63
2022/12/30 04:36:02;;;;;;;4.10;3.70;;;4.50;99.90;;;5.19;100.00;97947.81;5194153;28;20252;-62
2022/12/30 04:38:36;;;;;;;5.87;5.07;;;4.50;99.90;;;5.18;100.00;97951.13;5199439;28;20220;-63
2022/12/30 04:41:10;;;;;;;8.70;6.77;;;4.50;99.90;;;5.20;100.00;97958.03;5194688;28;20284;-62
2022/12/30 04:43:43;;;;;;;8.10;7.30;;;4.50;99.90;;;5.17;100.00;97951.84;5193260;28;20198;-63
2022/12/30 04:46:16;;;;;;;10.67;7.93;;;4.50;99.90;;;5.13;100.00;97957.47;5189496;28;20277;-63
2022/12/30 04:48:50;;;;;;;9.00;6.97;;;4.50;99.90;;;5.18;100.00;97957.06;5228659;22;20216;-63
2022/12/30 04:51:28;;;;;;;5.77;4.33;;;4.50;99.90;;;5.10;100.00;97950.50;5218078;28;20209;-63
2022/12/30 04:54:01;;;;;;;4.73;4.33;;;4.40;99.90;;;5.05;100.00;97951.78;5216178;28;20233;-64
2022/12/30 04:56:36;;;;;;;4.87;4.07;;;4.40;99.90;;;4.98;100.00;97954.59;5215256;28;20233;-64
2022/12/30 04:59:09;;;;;;;4.93;3.37;;;4.30;99.90;;;4.94;100.00;97968.63;5198920;28;20689;-64
2022/12/30 05:01:42;;;;;;;3.30;3.10;;;4.20;99.90;;;4.90;100.00;97981.84;5197437;28;20210;-64
2022/12/30 05:04:23;;;;;;;2.70;2.60;;;4.20;99.90;;;4.70;100.00;97982.75;5197761;28;20236;-63
2022/12/30 05:06:56;;;;;;;3.17;2.80;;;4.00;99.90;;;4.71;100.00;97983.63;5197772;28;20316;-63
2022/12/30 05:09:29;;;;;;;11.63;4.30;;;4.00;99.90;;;4.61;100.00;97976.06;5198796;28;20285;-64
2022/12/30 05:12:04;;;;;;;3.40;3.10;;;4.00;99.90;;;4.62;100.00;97972.75;5196018;28;20222;-63
2022/12/30 05:14:37;;;;;;;7.10;3.40;;;4.00;99.90;;;4.67;100.00;97966.44;5201315;28;20202;-64
2022/12/30 05:17:10;;;;;;;8.43;3.77;;;4.00;99.90;;;4.67;100.00;97969.84;5198539;28;20669;-63
2022/12/30 05:19:43;;;;;;;46.53;6.83;;;4.00;99.90;;;4.57;100.00;97972.38;5195733;28;20209;-63
2022/12/30 05:22:16;;;;;;;11.43;4.93;;;4.00;99.90;;;4.54;100.00;97966.19;5197184;28;20209;-63
2022/12/30 05:27:42;;;;;;;11.17;5.83;;;3.90;99.90;;;4.60;100.00;97959.97;5195083;28;20261;-63
2022/12/30 05:30:15;;;;;;;7.27;5.17;;;4.00;99.90;;;4.65;100.00;97963.75;5199682;28;20201;-64
2022/12/30 05:32:48;;;;;;;32.13;5.63;;;4.00;99.90;;;4.54;100.00;97958.59;5197651;28;20285;-64
2022/12/30 05:35:22;;;;;;;5.27;3.80;;;4.00;99.90;;;4.54;100.00;97958.59;5199232;28;20245;-63
2022/12/30 05:37:55;;;;;;;75.63;8.73;;;3.90;99.90;;;4.51;100.00;97952.50;5195457;28;20301;-64
2022/12/30 05:40:28;;;;;;;22.97;4.40;;;3.90;99.90;;;4.43;100.00;97951.00;5199188;28;20259;-63
2022/12/30 05:43:02;;;;;;;18.37;3.87;;;3.70;99.90;;;4.37;100.00;97950.50;5198382;28;20202;-64
2022/12/30 05:45:35;;;;;;;2.80;2.60;;;3.70;99.90;;;4.40;100.00;97945.69;5198652;28;20209;-63
2022/12/30 05:48:09;;;;;;;3.13;2.77;;;3.70;99.90;;;4.45;100.00;97948.59;5198393;28;20313;-63
2022/12/30 05:50:42;;;;;;;9.30;3.20;;;3.80;99.90;;;4.40;100.00;97933.03;5197534;28;20245;-64
2022/12/30 05:53:15;;;;;;;5.27;3.30;;;3.70;99.90;;;4.42;100.00;97939.13;5196711;28;20198;-63
2022/12/30 05:55:48;;;;;;;4.33;3.40;;;3.80;99.90;;;4.46;100.00;97936.09;5198886;28;20226;-64
2022/12/30 05:58:22;;;;;;;6.77;3.17;;;3.80;99.90;;;4.46;100.00;97935.19;5201299;28;20244;-63
2022/12/30 06:00:57;;;;;;;12.37;3.90;;;3.80;99.90;;;4.48;100.00;97948.84;5199673;28;20679;-63
2022/12/30 06:03:30;;;;;;;27.87;4.93;;;3.80;99.90;;;4.47;100.00;97947.97;5202846;28;20673;-63
2022/12/30 06:06:07;;;;;;;11.87;3.33;;;3.80;99.90;;;4.41;100.00;97961.78;5200327;28;20213;-63
2022/12/30 06:08:41;;;;;;;11.60;3.70;;;3.70;99.90;;;4.38;100.00;97962.41;5200192;28;20600;-64
2022/12/30 06:11:14;;;;;;;3.23;3.00;;;3.70;99.90;;;4.36;100.00;97973.16;5200706;28;20229;-63
2022/12/30 06:13:48;;;;;;;3.17;2.40;;;3.60;99.90;;;4.28;100.00;97970.88;5201381;28;20236;-63
2022/12/30 06:16:21;;;;;;;2.50;2.30;;;3.50;99.90;;;4.25;100.00;97970.63;5202097;28;20297;-63
2022/12/30 06:18:54;;;;;;;2.43;2.33;;;3.40;99.90;;;4.20;100.00;97971.00;5201426;28;20609;-63
2022/12/30 06:21:28;;;;;;;3.20;2.30;;;3.40;99.90;;;4.01;100.00;97968.59;5199798;28;20209;-64
2022/12/30 06:24:01;;;;;;;2.77;2.57;;;3.20;99.90;;;3.97;100.00;97969.94;5197880;28;20292;-63
2022/12/30 06:26:34;;;;;;;6.50;2.83;;;3.20;99.90;;;3.94;100.00;97966.28;5199317;28;20244;-63
2022/12/30 06:29:09;;;;;;;6.27;3.10;;;3.20;99.90;;;3.90;100.00;97962.63;5201327;28;20360;-63
2022/12/30 06:31:42;;;;;;;8.53;2.00;;;3.20;99.90;;;3.77;100.00;97968.28;5201025;28;20228;-63
2022/12/30 06:34:15;;;;;;;127.93;10.30;;;3.00;99.90;;;3.57;100.00;97978.31;5200955;28;20224;-63
2022/12/30 06:36:48;;;;;;;51.07;6.33;;;2.90;99.90;;;3.45;100.00;97987.38;5200173;28;20635;-63
2022/12/30 06:39:21;;;;;;;6.23;3.33;;;2.80;99.90;;;3.54;100.00;97988.19;5198115;28;20206;-63
2022/12/30 06:41:54;;;;;;;10.07;5.03;;;2.90;99.90;;;3.61;100.00;97986.31;5201926;28;20750;-63
2022/12/30 06:44:29;;;;;;;73.57;9.10;;;3.00;99.90;;;3.63;100.00;97986.44;5199770;28;20233;-63
2022/12/30 06:47:02;;;;;;;6.90;4.83;;;3.00;99.90;;;3.66;100.00;97984.16;5199156;28;20237;-64
2022/12/30 06:49:35;;;;;;;15.17;6.37;;;3.10;99.90;;;3.70;100.00;97977.75;5199582;28;20280;-64
2022/12/30 06:52:08;;;;;;;67.17;7.83;;;3.10;99.90;;;3.64;100.00;97979.75;5199809;28;20701;-63
2022/12/30 06:54:41;;;;;;;5.20;4.17;;;3.00;99.90;;;3.59;100.00;97980.22;5201008;28;20348;-63
2022/12/30 06:57:15;;;;;;;5.70;5.10;;;3.00;99.90;;;3.61;100.00;97980.38;5201555;28;20582;-63
2022/12/30 06:59:49;;;;;;;4.90;4.47;;;2.90;99.90;;;3.55;100.00;97985.81;5201454;28;20290;-63
2022/12/30 07:02:22;;;;;;;4.63;4.23;;;2.80;99.90;;;3.56;100.00;97974.91;5196498;28;20284;-63
2022/12/30 07:04:55;;;;;;;6.87;4.47;;;2.90;99.90;;;3.55;100.00;97979.88;5200969;28;20598;-64
2022/12/30 07:07:29;;;;;;;16.03;4.83;;;2.80;99.90;;;3.50;100.00;97971.88;5197752;28;20644;-63
2022/12/30 07:10:02;;;;;;;6.50;4.30;;;2.80;99.90;;;3.50;100.00;97968.47;5200737;28;20308;-63
2022/12/30 07:12:35;;;;;;;6.53;4.87;;;2.80;99.90;;;3.39;100.00;97973.47;5201517;28;20232;-63
2022/12/30 07:15:11;;;;;;;9.33;4.20;;;2.70;99.90;;;3.36;100.00;97975.75;5199545;28;20241;-63
2022/12/30 07:17:44;;;;;;;5.73;4.50;;;2.70;99.90;;;3.35;100.00;97970.56;5197382;28;20310;-63
2022/12/30 07:20:17;;;;;;;5.00;4.60;;;2.60;99.90;;;3.38;100.00;97968.31;5200189;28;20198;-63
2022/12/30 07:22:50;;;;;;;7.50;4.37;;;2.70;99.90;;;3.42;100.00;97977.91;5197877;28;20197;-63
2022/12/30 07:25:23;;;;;;;6.03;4.30;;;2.70;99.90;;;3.30;100.00;97980.25;5196193;28;20202;-63
2022/12/30 07:28:00;;;;;;;4.17;3.83;;;2.60;99.90;;;3.25;100.00;97973.91;5199351;28;20252;-63
2022/12/30 07:30:35;;;;;;;7.10;4.43;;;2.60;99.90;;;3.20;100.00;97980.19;5201292;28;20231;-63
2022/12/30 07:33:08;;;;;;;4.63;4.23;;;2.50;99.90;;;3.22;100.00;97980.34;5201292;28;20287;-63
2022/12/30 07:35:41;;;;;;;8.83;6.07;;;2.60;99.90;;;3.23;100.00;97987.16;5200542;28;20206;-63
2022/12/30 07:38:14;;;;;;;7.33;6.50;;;2.50;99.90;;;3.20;100.00;97990.31;5199888;28;20264;-63
2022/12/30 07:40:47;;;;;;;9.33;6.47;;;2.50;99.90;;;3.19;100.00;97998.66;5198759;28;20197;-63
2022/12/30 07:43:20;;;;;;;7.33;5.97;;;2.50;99.90;;;3.17;100.00;98002.66;5200575;28;20305;-63
2022/12/30 07:45:55;;;;;;;10.03;6.10;;;2.50;99.90;;;3.21;100.00;97987.06;5197549;28;20208;-63
2022/12/30 07:48:28;;;;;;;7.53;6.40;;;2.50;99.90;;;3.21;100.00;97986.16;5199269;28;20320;-63
2022/12/30 07:51:06;;;;;;;6.67;6.07;;;2.50;99.90;;;3.15;100.00;97997.50;5199233;28;20721;-63
2022/12/30 07:53:40;;;;;;;41.20;5.33;;;2.50;99.90;;;3.23;100.00;97989.69;5194200;28;20930;-63
2022/12/30 07:56:14;;;;;;;68.63;7.50;;;2.50;99.90;;;3.19;100.00;98000.28;5196427;28;20614;-63
2022/12/30 07:58:47;;;;;;;15.00;4.63;;;2.50;99.90;;;2.90;100.00;98004.53;5200440;28;20213;-63
2022/12/30 08:01:22;;;;;;;10.43;4.63;;;2.30;99.90;;;2.97;100.00;98003.44;5198807;28;20194;-63
2022/12/30 08:03:56;;;;;;;47.47;7.67;;;2.30;99.90;;;2.98;100.00;97992.63;5197588;28;20575;-63
2022/12/30 08:06:29;;;;;;;12.37;6.17;;;2.30;99.90;;;2.94;100.00;97991.44;5200694;28;20209;-63
2022/12/30 08:09:04;;;;;;;5.07;4.60;;;2.30;99.90;;;3.04;100.00;97998.19;5200072;28;20359;-63
2022/12/30 08:11:38;;;;;;;13.13;4.23;;;2.40;99.90;;;3.18;100.00;97994.34;5200102;28;20228;-63
2022/12/30 08:14:12;;;;;;;5.73;4.57;;;2.50;99.90;;;3.19;100.00;97982.63;5198686;28;20224;-63
2022/12/30 08:16:46;;;;;;;6.37;5.27;;;2.50;99.90;;;3.23;100.00;97974.53;5195787;28;20233;-63
2022/12/30 08:19:19;;;;;;;15.80;5.80;;;2.40;99.90;;;3.15;100.00;97974.78;5197400;28;20205;-63
2022/12/30 08:21:52;;;;;;;15.97;5.37;;;2.40;99.90;;;2.99;100.00;97976.69;5199836;28;20393;-64
2022/12/30 08:24:25;;;;;;;4.97;4.57;;;2.30;99.90;;;3.07;100.00;97968.16;5197774;28;20638;-63
2022/12/30 08:26:58;;;;;;;8.77;4.63;;;2.50;99.90;;;3.20;100.00;97977.69;5196812;28;20243;-63
2022/12/30 08:29:31;;;;;;;6.60;4.50;;;2.60;99.90;;;3.23;100.00;97977.06;5199884;28;20229;-63
2022/12/30 08:32:06;;;;;;;5.50;4.00;;;2.50;99.90;;;2.98;100.00;97982.50;5200089;28;20236;-63
2022/12/30 08:34:39;;;;;;;4.87;4.20;;;2.40;99.90;;;3.14;100.00;97970.44;5199209;28;20229;-64
2022/12/30 08:37:12;;;;;;;5.17;4.77;;;2.50;99.90;;;3.21;100.00;97971.00;5196909;28;20719;-63
2022/12/30 08:39:46;;;;;;;6.07;4.90;;;2.60;99.90;;;3.33;100.00;97962.84;5200405;28;20576;-63
2022/12/30 08:42:19;;;;;;;6.90;4.33;;;2.80;99.90;;;3.51;100.00;97967.69;5198855;28;20206;-63
2022/12/30 08:44:52;;;;;;;5.83;4.40;;;2.90;99.90;;;3.67;100.00;97960.69;5200551;28;20237;-63
2022/12/30 08:47:27;;;;;;;6.10;5.53;;;3.00;99.90;;;3.73;100.00;97956.16;5198542;28;20272;-64
2022/12/30 08:50:00;;;;;;;6.63;5.50;;;3.10;99.90;;;3.71;100.00;97950.06;5197751;28;20680;-63
2022/12/30 08:52:33;;;;;;;5.63;4.50;;;3.00;99.90;;;3.71;100.00;97946.66;5196612;28;20206;-63
2022/12/30 08:55:07;;;;;;;4.27;3.97;;;3.00;99.90;;;3.83;100.00;97947.69;5197985;28;20252;-64
2022/12/30 08:57:41;;;;;;;4.07;3.70;;;3.10;99.90;;;3.87;100.00;97944.66;5199070;28;20225;-64
2022/12/30 09:00:15;;;;;;;4.70;4.30;;;3.20;99.90;;;3.93;100.00;97940.13;5193973;28;20272;-64
2022/12/30 09:02:50;;;;;;;4.00;3.70;;;3.30;99.90;;;3.99;100.00;97942.28;5198963;28;20233;-64
2022/12/30 09:05:23;;;;;;;4.63;3.83;;;3.20;99.90;;;4.03;100.00;97942.69;5195758;28;20283;-64
2022/12/30 09:07:56;;;;;;;4.50;4.10;;;3.30;99.90;;;4.09;100.00;97937.22;5198407;28;20272;-64
2022/12/30 09:10:31;;;;;;;4.77;4.37;;;3.30;99.90;;;4.23;100.00;97938.34;5196964;28;20217;-63
2022/12/30 09:13:04;;;;;;;5.23;4.73;;;3.40;99.90;;;4.27;100.00;97923.56;5191615;28;20207;-64
2022/12/30 09:15:37;;;;;;;5.50;4.90;;;3.50;99.90;;;4.40;100.00;97915.31;5195363;28;20237;-64
2022/12/30 09:18:12;;;;;;;9.03;7.97;;;3.70;99.90;;;4.56;100.00;97916.59;5200350;28;20283;-64
2022/12/30 09:20:45;;;;;;;9.80;8.80;;;3.90;99.90;;;4.70;100.00;97911.00;5200350;28;20233;-64
2022/12/30 09:23:18;;;;;;;9.33;8.43;;;4.00;99.90;;;4.82;100.00;97903.47;5201852;28;20284;-64
2022/12/30 09:25:51;;;;;;;8.43;7.63;;;4.10;99.90;;;4.90;100.00;97902.44;5203318;28;20198;-64
2022/12/30 09:28:24;;;;;;;8.00;7.20;;;4.20;99.90;;;5.08;100.00;97895.41;5197887;28;20229;-64
2022/12/30 09:30:58;;;;;;;9.00;7.90;;;4.40;99.90;;;5.20;100.00;97886.22;5203178;28;20218;-64
2022/12/30 09:33:32;;;;;;;8.97;7.67;;;4.60;99.90;;;5.29;100.00;97902.13;5201814;28;20341;-64
2022/12/30 09:36:07;;;;;;;8.63;7.70;;;4.60;99.90;;;5.50;100.00;97900.41;5202314;28;20289;-64
2022/12/30 09:38:40;;;;;;;8.43;7.43;;;4.90;99.90;;;5.74;100.00;97897.97;5199456;28;20221;-64
2022/12/30 09:43:15;;;;;;;8.70;7.80;;;5.10;99.90;;;5.90;100.00;97892.41;5203226;28;20281;-64
2022/12/30 09:44:33;;;;;;;7.80;7.10;;;5.20;99.90;;;6.13;100.00;97895.06;5193721;28;20198;-64
2022/12/30 09:47:14;;;;;;;7.80;7.10;;;5.30;99.90;;;6.23;100.00;97900.03;5191446;28;20233;-64
2022/12/30 09:50:01;;;;;;;6.93;6.43;;;5.40;99.90;;;6.35;100.00;97892.44;5198409;28;20222;-64
2022/12/30 09:52:45;;;;;;;7.13;6.50;;;5.50;99.90;;;6.27;100.00;97888.47;5201052;28;20237;-64
2022/12/30 09:55:22;;;;;;;7.00;6.40;;;5.50;99.90;;;6.39;100.00;97874.13;5200413;28;20229;-64
2022/12/30 09:57:59;;;;;;;6.40;5.90;;;5.60;99.90;;;6.51;100.00;97874.13;5197381;28;20233;-64
2022/12/30 10:00:35;;;;;;;8.27;7.40;;;5.70;99.90;;;6.57;100.00;97858.47;5199736;28;20204;-64
2022/12/30 10:03:18;;;;;;;8.20;7.40;;;5.70;99.90;;;6.55;100.00;97850.72;5197516;28;20217;-64
2022/12/30 10:06:24;;;;;;;8.77;7.87;;;5.70;99.90;;;6.49;100.00;97840.13;5198635;28;20209;-64
2022/12/30 10:09:20;;;;;;;10.57;9.67;;;5.70;99.90;;;6.52;100.00;97845.44;5197538;28;20277;-64
2022/12/30 10:12:20;;;;;;;9.63;8.77;;;5.70;99.90;;;6.57;100.00;97825.47;5200084;28;20206;-65
2022/12/30 10:15:12;;;;;;;8.27;7.47;;;5.70;99.90;;;6.64;100.00;97813.31;5195452;28;20229;-64
2022/12/30 10:18:04;;;;;;;7.33;6.63;;;5.80;99.90;;;6.68;100.00;97802.59;5197857;28;20436;-64
2022/12/30 10:20:57;;;;;;;8.47;7.60;;;6.00;99.90;;;6.88;100.00;97800.59;5199753;28;20283;-64
2022/12/30 10:23:57;;;;;;;7.93;7.20;;;6.10;99.90;;;7.11;100.00;97785.28;5203702;28;20198;-64
2022/12/30 10:26:38;;;;;;;6.27;5.67;;;6.30;99.90;;;7.16;100.00;97776.31;5202702;28;20291;-64
2022/12/30 10:29:18;;;;;;;4.70;4.30;;;6.50;99.90;;;7.36;100.00;97772.59;5201540;28;20289;-64
2022/12/30 10:31:53;;;;;;;5.13;4.73;;;6.70;99.90;;;7.52;100.00;97765.97;5201516;28;20763;-64
2022/12/30 10:34:30;;;;;;;4.97;4.57;;;6.70;99.90;;;7.65;100.00;97758.41;5204003;28;20289;-64
2022/12/30 10:37:06;;;;;;;5.25;4.75;;;6.90;99.90;;;7.74;100.00;97766.63;5204723;28;20271;-64
2022/12/30 10:39:46;;;;;;;4.05;3.83;;;7.00;99.90;;;7.95;100.00;97763.72;5202528;28;20735;-64
2022/12/30 10:42:37;;;;;;;4.32;4.03;;;7.10;99.90;;;8.18;100.00;97755.03;5204322;28;20878;-64
2022/12/30 10:45:41;;;;;;;4.28;3.88;;;7.30;99.90;;;8.05;100.00;97754.25;5195789;28;20897;-64
2022/12/30 10:48:36;;;;;;;4.20;3.70;;;7.20;99.90;;;8.22;100.00;97755.34;5204974;28;20313;-64
2022/12/30 10:51:14;;;;;;;3.67;3.47;;;7.40;99.90;;;8.22;100.00;97751.94;5201162;28;20737;-64
2022/12/30 10:53:52;;;;;;;3.75;3.45;;;7.40;99.90;;;8.30;100.00;97750.75;5203573;28;20233;-64
2022/12/30 10:56:29;;;;;;;3.55;3.28;;;7.50;99.90;;;8.32;100.00;97756.81;5204459;28;20285;-64
2022/12/30 10:59:07;;;;;;;4.03;3.72;;;7.50;99.90;;;8.40;100.00;97747.16;5203729;28;20221;-64
2022/12/30 11:01:43;;;;;;;3.08;2.88;;;7.50;99.90;;;8.51;100.00;97741.94;5203922;28;20210;-64
2022/12/30 11:04:35;;;;;;;3.10;2.90;;;7.60;99.90;;;8.62;100.00;97734.13;5204806;28;20208;-64
2022/12/30 11:07:11;;;;;;;2.42;2.22;;;7.70;99.90;;;8.63;100.00;97731.66;5202204;28;20769;-64
2022/12/30 11:09:46;;;;;;;2.97;2.78;;;7.70;99.90;;;8.76;100.00;97728.22;5204354;28;20748;-64
2022/12/30 11:15:26;;;;;;;11.00;7.63;;;7.90;99.90;;;9.05;100.00;97716.38;5197967;28;20667;-64
2022/12/30 11:17:59;;;;;;;8.43;7.53;;;8.10;99.90;;;9.21;100.00;97719.94;5195443;28;20260;-64
2022/12/30 11:20:36;;;;;;;5.35;4.60;;;8.20;99.90;;;9.30;100.00;97708.50;5202305;28;20729;-64
2022/12/30 11:23:25;;;;;;;3.30;3.08;;;8.30;99.90;;;9.63;100.00;97714.69;5196635;28;20198;-65
2022/12/30 11:26:00;;;;;;;3.22;2.85;;;8.50;99.90;;;9.54;100.00;97715.03;5199525;28;20878;-64
2022/12/30 11:28:39;;;;;;;2.97;2.78;;;8.50;99.90;;;9.31;100.00;97713.69;5200249;28;20688;-64
2022/12/30 11:31:14;;;;;;;2.90;2.60;;;8.30;99.90;;;9.28;100.00;97705.88;5198782;28;20316;-64
2022/12/30 11:33:51;;;;;;;3.08;2.78;;;8.30;99.90;;;9.42;100.00;97705.00;5201665;28;20194;-64
2022/12/30 11:36:35;;;;;;;2.53;2.33;;;8.30;99.90;;;9.28;100.00;97699.88;5199965;28;20289;-64
2022/12/30 11:39:27;;;;;;;2.35;2.15;;;8.20;99.90;;;9.31;100.00;97690.75;5200065;28;20228;-64
2022/12/30 11:42:05;;;;;;;2.67;2.58;;;8.20;99.90;;;9.39;100.00;97697.19;5196489;28;20687;-64
2022/12/30 11:44:39;;;;;;;20.08;8.55;;;8.30;99.90;;;9.63;100.00;97699.41;5201294;28;20206;-63
2022/12/30 11:47:13;;;;;;;12.07;6.55;;;8.50;99.90;;;9.61;100.00;97695.84;5198207;28;20315;-64
2022/12/30 11:49:50;;;;;;;36.33;17.30;;;8.40;99.90;;;9.71;100.00;97693.06;5199718;28;20279;-63
2022/12/30 11:52:28;;;;;;;12.10;6.18;;;8.50;99.90;;;9.97;100.00;97692.00;5201850;28;20222;-64
2022/12/30 11:55:04;;;;;;;9.63;5.97;;;8.80;99.90;;;9.86;100.00;97696.47;5201136;28;20224;-64
2022/12/30 11:57:42;;;;;;;25.05;12.10;;;8.70;99.90;;;9.91;100.00;97692.53;5195444;28;20221;-64
2022/12/30 12:00:35;;;;;;;6.78;3.88;;;8.70;99.90;;;9.92;100.00;97691.72;5190874;28;20202;-61
2022/12/30 12:03:16;;;;;;;5.53;3.35;;;8.70;99.90;;;9.81;100.00;97684.25;5195248;28;20569;-63